Time;durP1;ratioP1;P1;durP2;ratioP2;P2;SDS_P1;SDS_P2;PMS_P1;PMS_P2;Temp;Humidity;BMP_temperature;BMP_pressure;BME280_temperature;BME280_humidity;BME280_pressure;Samples;Min_cycle;Max_cycle;Signal;HPM_P1;HPM_P2
2023/10/05 00:03:50;;;;;;;2.00;0.95;;;;;;;30.96;25.26;101031.53;5011890;28;20029;-44
2023/10/05 00:06:27;;;;;;;1.63;0.70;;;;;;;30.89;24.95;101022.19;5011286;28;20034;-43
2023/10/05 00:08:56;;;;;;;1.80;1.00;;;;;;;31.05;24.79;101020.41;5013139;28;20022;-43
2023/10/05 00:11:29;;;;;;;3.03;1.00;;;;;;;30.88;24.56;101017.81;5018079;28;20425;-43
2023/10/05 00:14:09;;;;;;;2.67;0.70;;;;;;;30.70;24.51;101014.38;5011786;28;20028;-45
2023/10/05 00:16:38;;;;;;;1.80;0.80;;;;;;;30.83;25.22;101015.25;5016230;28;20026;-44
2023/10/05 00:19:12;;;;;;;5.25;1.10;;;;;;;30.72;25.01;101015.66;5011789;28;20042;-45
2023/10/05 00:21:41;;;;;;;;;;;;;;;30.79;24.96;101012.34;5011941;28;20026;-44
2023/10/05 00:24:08;;;;;;;2.35;0.90;;;;;;;30.90;25.12;101019.09;5022208;28;19917;-44
2023/10/05 00:26:35;;;;;;;3.78;0.90;;;;;;;30.77;24.88;101011.91;5030542;28;20026;-46
2023/10/05 00:29:05;;;;;;;4.15;0.88;;;;;;;30.71;25.08;101010.50;5018694;28;20061;-44
2023/10/05 00:31:33;;;;;;;2.63;0.90;;;;;;;30.63;24.79;101012.13;5024991;28;20026;-44
2023/10/05 00:33:59;;;;;;;2.38;0.98;;;;;;;30.67;25.04;101015.84;5012065;28;20040;-43
2023/10/05 00:36:32;;;;;;;3.17;0.93;;;;;;;30.59;25.08;101002.91;5024136;28;20095;-42
2023/10/05 00:39:01;;;;;;;2.05;0.85;;;;;;;30.44;25.36;101011.81;5031952;28;20108;-42
2023/10/05 00:41:28;;;;;;;4.88;1.00;;;;;;;30.37;25.20;101003.22;5031839;28;20441;-42
2023/10/05 00:43:55;;;;;;;2.75;0.90;;;;;;;30.65;25.30;101006.25;5031603;28;20041;-42
2023/10/05 00:46:23;;;;;;;1.17;0.70;;;;;;;30.62;24.71;101002.22;5031267;28;20032;-44
2023/10/05 00:51:34;;;;;;;2.63;0.70;;;;;;;30.43;25.58;101002.72;5024794;28;20044;-45
2023/10/05 00:54:10;;;;;;;2.47;0.80;;;;;;;30.39;25.39;101006.47;5020606;28;20056;-42
2023/10/05 00:56:40;;;;;;;1.25;0.70;;;;;;;30.34;25.64;101006.69;5014192;28;20022;-43
2023/10/05 00:59:10;;;;;;;2.15;0.80;;;;;;;30.40;25.30;101006.13;5014415;28;20053;-45
2023/10/05 01:02:04;;;;;;;1.88;1.00;;;;;;;30.46;25.59;101009.50;5014834;28;20486;-44
2023/10/05 01:07:18;;;;;;;2.30;0.60;;;;;;;30.32;25.83;101007.03;5033952;28;20025;-47
2023/10/05 01:10:42;;;;;;;2.70;1.10;;;;;;;29.96;26.24;101002.81;5013668;28;20128;-46
2023/10/05 01:12:43;;;;;;;1.67;0.73;;;;;;;29.94;26.36;101013.38;5026544;28;20394;-43
2023/10/05 01:15:16;;;;;;;3.70;1.08;;;;;;;29.83;26.37;101011.34;5015315;28;20030;-45
2023/10/05 01:17:42;;;;;;;3.90;1.02;;;;;;;29.82;26.77;101013.28;5013657;28;20030;-42
2023/10/05 01:20:21;;;;;;;2.60;0.73;;;;;;;29.78;27.00;101019.78;5020801;28;20037;-44
2023/10/05 01:22:49;;;;;;;2.38;0.98;;;;;;;29.79;26.94;101008.41;5028510;28;20108;-44
2023/10/05 01:25:16;;;;;;;2.38;0.80;;;;;;;30.04;26.96;101012.19;5012906;28;20037;-42
2023/10/05 01:27:53;;;;;;;2.85;0.80;;;;;;;29.85;28.03;101022.84;5013713;28;20022;-43
2023/10/05 01:30:21;;;;;;;1.60;0.80;;;;;;;29.56;27.71;101018.09;5013793;28;20189;-43
2023/10/05 01:32:49;;;;;;;1.45;0.93;;;;;;;29.50;27.85;101013.88;5016826;28;20021;-42
2023/10/05 01:35:20;;;;;;;1.48;1.00;;;;;;;29.42;28.44;101016.31;5034353;28;20104;-43
2023/10/05 01:37:51;;;;;;;5.57;1.02;;;;;;;29.44;28.16;101011.28;5034280;28;20355;-43
2023/10/05 01:42:47;;;;;;;1.08;0.90;;;;;;;29.33;29.40;101017.47;5034098;28;20061;-42
2023/10/05 01:45:24;;;;;;;3.58;1.25;;;;;;;29.31;29.26;101025.25;5033999;28;20029;-44
2023/10/05 01:47:51;;;;;;;2.13;0.90;;;;;;;29.17;28.73;101018.00;5033991;28;20056;-43
2023/10/05 01:50:22;;;;;;;2.25;1.00;;;;;;;29.00;30.06;101026.28;5030111;28;20116;-43
2023/10/05 01:53:39;;;;;;;4.97;1.33;;;;;;;28.84;30.25;101031.47;5030794;28;20033;-42
2023/10/05 01:55:39;;;;;;;2.47;1.10;;;;;;;28.80;30.18;101024.97;5024263;28;20037;-43
2023/10/05 01:58:07;;;;;;;3.38;1.20;;;;;;;28.65;30.22;101026.28;5033753;28;20079;-43
2023/10/05 02:00:37;;;;;;;2.10;1.00;;;;;;;28.53;30.36;101026.09;5033378;28;20092;-43
2023/10/05 02:03:13;;;;;;;2.42;1.17;;;;;;;28.61;29.93;101035.50;5033158;28;20076;-44
2023/10/05 02:05:41;;;;;;;3.38;1.10;;;;;;;28.40;29.74;101030.63;5033219;28;20140;-42
2023/10/05 02:08:08;;;;;;;1.98;1.10;;;;;;;28.30;30.55;101028.13;5024783;28;20106;-44
2023/10/05 02:10:39;;;;;;;2.70;0.90;;;;;;;28.23;30.55;101033.31;5033049;28;20034;-43
2023/10/05 02:13:12;;;;;;;2.08;1.02;;;;;;;28.09;31.17;101029.84;5013799;28;20113;-46
2023/10/05 02:15:42;;;;;;;4.40;1.45;;;;;;;27.96;30.93;101028.84;5026783;28;20121;-43
2023/10/05 02:18:28;;;;;;;3.10;1.30;;;;;;;27.92;30.94;101030.59;5041276;28;20352;-43
2023/10/05 02:23:34;;;;;;;5.43;3.15;;;;;;;27.71;32.71;101037.81;5034164;28;20151;-43
2023/10/05 02:26:05;;;;;;;5.20;3.53;;;;;;;27.56;33.78;101037.06;5022860;28;20017;-42
2023/10/05 02:28:33;;;;;;;6.40;4.72;;;;;;;27.43;33.76;101040.72;5029219;28;20460;-42
2023/10/05 02:31:00;;;;;;;4.65;3.38;;;;;;;27.30;34.03;101045.16;5028341;28;20029;-42
2023/10/05 02:33:28;;;;;;;3.60;1.73;;;;;;;27.63;32.70;101053.91;5020846;28;20026;-43
2023/10/05 02:36:08;;;;;;;3.35;2.08;;;;;;;27.22;34.07;101059.66;5023019;28;20041;-42
2023/10/05 02:38:36;;;;;;;4.68;2.17;;;;;;;27.15;33.69;101061.19;5053617;22;20398;-42
2023/10/05 02:41:04;;;;;;;4.53;2.63;;;;;;;27.07;33.90;101069.06;5052858;28;20032;-42
2023/10/05 02:43:38;;;;;;;6.80;2.42;;;;;;;27.12;34.36;101064.59;5040328;28;20393;-42
2023/10/05 02:46:13;;;;;;;;;;;;;;;26.95;35.09;101074.28;5033251;28;20029;-41
2023/10/05 02:48:41;;;;;;;5.25;2.40;;;;;;;26.87;35.07;101071.47;5032682;28;20383;-42
2023/10/05 02:51:11;;;;;;;11.40;2.15;;;;;;;26.81;35.23;101076.25;5032774;28;20034;-41
2023/10/05 02:53:41;;;;;;;7.15;2.65;;;;;;;26.63;36.05;101093.69;5045596;28;20507;-41
2023/10/05 02:56:21;;;;;;;5.47;2.30;;;;;;;26.54;37.03;101096.34;5030156;28;20037;-41
2023/10/05 02:58:54;;;;;;;4.65;2.35;;;;;;;26.19;39.04;101095.94;5033009;28;20029;-41
2023/10/05 03:01:24;;;;;;;2.45;1.52;;;;;;;25.74;41.14;101100.34;5033141;28;20100;-41
2023/10/05 03:03:55;;;;;;;6.05;1.45;;;;;;;25.59;42.79;101097.84;5032748;28;20032;-41
2023/10/05 03:06:23;;;;;;;4.07;1.38;;;;;;;25.48;44.64;101110.91;5061522;28;20025;-40
2023/10/05 03:08:54;;;;;;;5.47;1.60;;;;;;;25.08;46.39;101109.63;5045843;28;20413;-40
2023/10/05 03:11:20;;;;;;;3.33;1.25;;;;;;;25.20;45.73;101123.69;5050260;28;20033;-40
2023/10/05 03:13:50;;;;;;;5.60;1.50;;;;;;;24.68;46.88;101130.97;5052288;28;20025;-41
2023/10/05 03:16:17;;;;;;;2.28;1.30;;;;;;;24.45;47.13;101127.94;5052192;28;20040;-41
2023/10/05 03:18:43;;;;;;;3.03;1.30;;;;;;;24.47;44.53;101133.94;5052264;28;20154;-41
2023/10/05 03:21:14;;;;;;;4.60;1.55;;;;;;;24.60;43.27;101131.63;5052416;28;20033;-40
2023/10/05 03:23:41;;;;;;;3.45;1.25;;;;;;;24.55;41.42;101134.41;5052129;28;20021;-40
2023/10/05 03:26:13;;;;;;;4.03;1.50;;;;;;;24.39;41.69;101131.03;5051902;28;20106;-40
2023/10/05 03:28:41;;;;;;;3.17;1.13;;;;;;;24.42;41.09;101135.91;5052162;28;20068;-41
2023/10/05 03:31:14;;;;;;;2.58;1.40;;;;;;;24.45;40.46;101141.63;5052070;28;20045;-41
2023/10/05 03:33:42;;;;;;;2.40;1.05;;;;;;;24.47;39.54;101141.34;5052148;28;20071;-41
2023/10/05 03:36:15;;;;;;;3.67;1.40;;;;;;;24.47;39.40;101146.81;5051946;28;20029;-42
2023/10/05 03:38:43;;;;;;;2.72;0.90;;;;;;;24.51;39.47;101144.31;5051753;28;20468;-42
2023/10/05 03:41:15;;;;;;;1.45;0.90;;;;;;;24.63;39.44;101150.19;5052141;28;20073;-41
2023/10/05 03:43:46;;;;;;;2.00;1.05;;;;;;;24.52;39.98;101157.69;5051709;28;20096;-41
2023/10/05 03:46:13;;;;;;;4.75;1.33;;;;;;;24.35;41.86;101154.63;5052018;28;20071;-42
2023/10/05 03:48:39;;;;;;;2.15;1.15;;;;;;;24.36;42.51;101170.72;5051905;28;20025;-40
2023/10/05 03:51:17;;;;;;;3.20;1.10;;;;;;;24.50;41.90;101159.91;5051796;28;20052;-40
2023/10/05 03:53:48;;;;;;;2.38;1.05;;;;;;;24.56;41.44;101160.69;5052359;28;20025;-41
2023/10/05 03:56:19;;;;;;;3.22;1.45;;;;;;;24.47;41.44;101164.03;5051715;28;20028;-39
2023/10/05 03:58:47;;;;;;;2.25;1.10;;;;;;;24.34;41.97;101167.44;5051739;28;20027;-40
2023/10/05 04:01:15;;;;;;;2.78;1.40;;;;;;;24.37;42.06;101161.41;5051342;28;20508;-44
2023/10/05 04:03:44;;;;;;;2.75;1.00;;;;;;;24.30;41.43;101174.59;5051809;28;20037;-41
2023/10/05 04:06:26;;;;;;;2.50;1.20;;;;;;;24.36;41.06;101173.47;5051114;28;20095;-41
2023/10/05 04:09:00;;;;;;;3.28;1.08;;;;;;;24.28;40.93;101174.09;5052291;28;20029;-41
2023/10/05 04:11:27;;;;;;;2.80;0.65;;;;;;;24.31;40.66;101176.22;5051683;28;20079;-41
2023/10/05 04:13:55;;;;;;;2.25;1.10;;;;;;;24.15;40.87;101174.75;5051478;28;20036;-42
2023/10/05 04:16:26;;;;;;;1.88;0.90;;;;;;;23.91;41.67;101177.44;5051572;28;20059;-41
2023/10/05 04:18:58;;;;;;;9.10;1.75;;;;;;;23.90;41.39;101182.09;5051492;28;20027;-40
2023/10/05 04:21:26;;;;;;;1.35;1.02;;;;;;;23.80;41.76;101176.72;5051223;28;20021;-41
2023/10/05 04:23:52;;;;;;;2.88;1.00;;;;;;;23.68;41.89;101176.28;5054910;28;20100;-40
2023/10/05 04:26:20;;;;;;;1.50;0.80;;;;;;;23.83;41.65;101184.34;5055294;28;20025;-41
2023/10/05 04:28:57;;;;;;;1.48;0.82;;;;;;;23.80;41.93;101179.44;5055406;28;20017;-39
2023/10/05 04:31:25;;;;;;;2.13;0.77;;;;;;;23.63;41.89;101182.59;5055394;28;20041;-40
2023/10/05 04:33:55;;;;;;;2.47;1.17;;;;;;;23.77;41.82;101184.69;5055397;28;20424;-41
2023/10/05 04:36:23;;;;;;;2.38;1.00;;;;;;;23.63;41.81;101184.50;5054718;28;20029;-41
2023/10/05 04:38:54;;;;;;;2.00;0.90;;;;;;;23.59;41.99;101183.41;5055106;28;20079;-44
2023/10/05 04:41:35;;;;;;;1.85;0.77;;;;;;;23.42;42.46;101183.81;5055266;28;20639;-41
2023/10/05 04:44:12;;;;;;;1.23;0.88;;;;;;;23.30;42.35;101186.06;5055475;28;20029;-40
2023/10/05 04:46:49;;;;;;;2.80;1.00;;;;;;;23.49;42.18;101188.97;5054801;28;20029;-41
2023/10/05 04:49:16;;;;;;;2.33;0.80;;;;;;;23.50;42.20;101194.16;5055145;28;20481;-40
2023/10/05 04:51:43;;;;;;;2.15;0.95;;;;;;;23.19;42.98;101193.50;5054671;28;20040;-40
2023/10/05 04:54:12;;;;;;;1.92;0.70;;;;;;;23.30;42.48;101192.34;5054766;28;20017;-40
2023/10/05 05:04:52;;;;;;;1.77;0.80;;;;;;;23.11;42.50;101203.13;5054771;28;20615;-41
2023/10/05 05:07:21;;;;;;;1.77;0.93;;;;;;;23.14;42.72;101197.06;5054186;28;20032;-41
2023/10/05 05:09:50;;;;;;;2.05;0.80;;;;;;;23.08;43.01;101200.13;5049202;28;20439;-41
2023/10/05 05:12:16;;;;;;;2.33;0.80;;;;;;;22.87;43.29;101194.75;5036208;28;20033;-41
2023/10/05 05:14:46;;;;;;;2.80;0.88;;;;;;;22.88;43.54;101188.22;5034087;28;20072;-41
2023/10/05 05:17:24;;;;;;;1.80;0.90;;;;;;;22.91;43.49;101195.00;5033696;28;20025;-41
2023/10/05 05:19:53;;;;;;;1.00;0.80;;;;;;;22.76;43.96;101193.13;5034229;28;20033;-41
2023/10/05 05:22:19;;;;;;;1.73;1.00;;;;;;;22.72;43.92;101202.19;5052197;28;20053;-41
2023/10/05 05:24:46;;;;;;;1.65;1.08;;;;;;;22.98;42.86;101208.34;5054241;28;20025;-41
2023/10/05 05:29:46;;;;;;;2.53;1.00;;;;;;;22.54;44.27;101201.69;5048842;28;20490;-40
2023/10/05 05:32:19;;;;;;;1.05;0.80;;;;;;;22.53;44.64;101207.41;5054285;28;20025;-41
2023/10/05 05:34:49;;;;;;;0.75;0.73;;;;;;;22.65;44.77;101202.44;5053690;28;20025;-41
2023/10/05 05:37:29;;;;;;;1.25;0.80;;;;;;;22.57;45.72;101203.84;5053924;28;20092;-40
2023/10/05 05:39:57;;;;;;;2.05;0.90;;;;;;;22.57;45.38;101206.56;5054071;28;20052;-40
2023/10/05 05:42:25;;;;;;;1.27;0.80;;;;;;;22.38;46.28;101202.81;5053291;28;20477;-40
2023/10/05 05:44:55;;;;;;;2.38;0.93;;;;;;;22.28;46.23;101209.09;5053566;28;20033;-40
2023/10/05 05:47:21;;;;;;;2.45;1.00;;;;;;;21.93;48.43;101212.66;5053367;28;20051;-40
2023/10/05 05:49:48;;;;;;;2.38;1.00;;;;;;;21.95;47.82;101199.56;5053245;28;20017;-40
2023/10/05 05:52:15;;;;;;;1.88;1.38;;;;;;;22.08;47.19;101207.16;5053443;28;20115;-40
2023/10/05 05:54:42;;;;;;;1.55;1.20;;;;;;;21.91;47.10;101208.53;5053375;28;20020;-40
2023/10/05 05:57:12;;;;;;;2.60;1.20;;;;;;;21.93;47.91;101207.19;5053287;28;20021;-40
2023/10/05 05:59:39;;;;;;;1.27;0.80;;;;;;;21.75;47.89;101213.97;5053906;28;20090;-40
2023/10/05 06:02:10;;;;;;;1.50;1.00;;;;;;;21.81;48.72;101212.09;5053274;28;20028;-39
2023/10/05 06:04:41;;;;;;;3.17;1.50;;;;;;;22.01;47.82;101208.53;5053360;28;20523;-40
2023/10/05 06:07:13;;;;;;;1.80;1.20;;;;;;;21.82;48.18;101206.38;5052964;28;20060;-40
2023/10/05 06:09:45;;;;;;;2.15;1.10;;;;;;;21.74;48.71;101208.81;5053019;28;20032;-39
2023/10/05 06:12:12;;;;;;;1.60;1.10;;;;;;;21.66;49.18;101212.09;5052638;28;20025;-40
2023/10/05 06:14:40;;;;;;;3.95;1.42;;;;;;;21.74;48.66;101211.53;5051854;28;20453;-40
2023/10/05 06:17:10;;;;;;;2.92;0.95;;;;;;;21.50;49.82;101209.34;5053150;28;20029;-40
2023/10/05 06:19:37;;;;;;;2.78;1.25;;;;;;;21.31;50.50;101209.00;5053182;28;20040;-39
2023/10/05 06:22:06;;;;;;;1.23;1.10;;;;;;;21.17;50.92;101204.34;5052694;28;20021;-40
2023/10/05 06:24:40;;;;;;;2.80;0.90;;;;;;;21.18;50.59;101205.97;5052938;28;20050;-40
2023/10/05 06:27:07;;;;;;;1.87;0.93;;;;;;;21.16;50.73;101197.25;5051240;28;20049;-39
2023/10/05 06:29:36;;;;;;;1.17;1.00;;;;;;;21.26;50.18;101198.06;5052822;28;20044;-40
2023/10/05 06:32:04;;;;;;;1.75;0.98;;;;;;;21.25;50.68;101201.06;5052907;28;20472;-40
2023/10/05 06:34:30;;;;;;;1.65;0.80;;;;;;;20.96;51.26;101198.00;5053398;28;20033;-41
2023/10/05 06:36:57;;;;;;;1.25;0.90;;;;;;;20.95;51.72;101196.38;5052412;28;20017;-40
2023/10/05 06:39:27;;;;;;;2.45;0.98;;;;;;;20.96;51.80;101196.09;5052223;28;20037;-41
2023/10/05 06:41:53;;;;;;;1.58;1.15;;;;;;;20.94;51.71;101195.53;5052795;28;20021;-41
2023/10/05 06:44:20;;;;;;;1.00;0.73;;;;;;;20.91;52.03;101203.41;5052644;28;20116;-40
2023/10/05 06:46:47;;;;;;;1.50;1.05;;;;;;;20.76;52.23;101196.81;5051450;28;20485;-41
2023/10/05 06:49:14;;;;;;;1.55;1.15;;;;;;;20.67;52.57;101195.69;5052306;28;20029;-41
2023/10/05 06:51:43;;;;;;;3.05;1.10;;;;;;;20.55;52.76;101197.81;5052288;28;20033;-41
2023/10/05 06:54:10;;;;;;;1.50;0.90;;;;;;;20.49;53.80;101207.03;5052478;28;20029;-40
2023/10/05 06:56:36;;;;;;;1.40;0.77;;;;;;;20.47;53.92;101204.56;5052285;28;20025;-40
2023/10/05 06:59:04;;;;;;;0.95;0.80;;;;;;;20.40;53.97;101198.50;5052359;28;20025;-40
2023/10/05 07:01:34;;;;;;;2.17;0.95;;;;;;;20.35;54.39;101203.09;5052159;28;20083;-41
2023/10/05 07:04:01;;;;;;;3.70;1.10;;;;;;;20.32;54.68;101193.53;5052209;28;20025;-41
2023/10/05 07:06:29;;;;;;;2.50;1.20;;;;;;;20.52;53.99;101201.06;5052096;28;20409;-41
2023/10/05 07:08:56;;;;;;;1.20;1.10;;;;;;;20.33;53.82;101206.09;5051849;28;20025;-41
2023/10/05 07:11:23;;;;;;;1.25;1.10;;;;;;;20.25;54.02;101201.13;5051951;28;20470;-40
2023/10/05 07:13:50;;;;;;;2.92;1.27;;;;;;;20.13;52.94;101200.50;5051764;28;20032;-41
2023/10/05 07:16:16;;;;;;;1.30;1.13;;;;;;;20.15;53.32;101206.47;5051749;28;20673;-40
2023/10/05 07:18:43;;;;;;;1.50;0.90;;;;;;;20.13;52.70;101209.47;5051927;28;20021;-41
2023/10/05 07:21:10;;;;;;;2.28;0.73;;;;;;;20.26;52.46;101211.72;5051508;28;20028;-40
2023/10/05 07:23:41;;;;;;;1.25;0.80;;;;;;;20.14;51.53;101205.66;5051592;28;20420;-40
2023/10/05 07:26:11;;;;;;;3.17;0.77;;;;;;;20.14;51.04;101215.72;5051601;28;20025;-40
2023/10/05 07:28:38;;;;;;;1.55;0.70;;;;;;;20.07;51.71;101212.41;5051706;28;20029;-40
2023/10/05 07:31:04;;;;;;;0.82;0.80;;;;;;;20.10;51.78;101211.88;5051683;28;20036;-41
2023/10/05 07:33:33;;;;;;;1.30;0.80;;;;;;;20.09;51.87;101211.06;5052008;28;20025;-41
2023/10/05 07:36:02;;;;;;;1.05;0.70;;;;;;;20.02;51.42;101207.75;5051210;28;20024;-39
2023/10/05 07:38:28;;;;;;;1.13;0.70;;;;;;;20.01;51.69;101209.66;5051677;28;20116;-40
2023/10/05 07:40:55;;;;;;;1.88;0.75;;;;;;;20.00;51.58;101213.44;5051699;28;20481;-40
2023/10/05 07:43:22;;;;;;;1.40;0.70;;;;;;;20.06;51.82;101211.59;5051939;28;20044;-39
2023/10/05 07:45:48;;;;;;;0.60;0.60;;;;;;;19.93;51.70;101222.88;5051368;28;20025;-39
2023/10/05 07:48:15;;;;;;;1.88;0.88;;;;;;;19.78;52.08;101213.53;5051338;28;20021;-40
2023/10/05 07:50:41;;;;;;;0.63;0.60;;;;;;;19.84;51.47;101216.31;5051716;28;20445;-40
2023/10/05 07:53:07;;;;;;;2.65;1.08;;;;;;;19.81;52.13;101219.53;5051428;28;20104;-45
2023/10/05 07:55:38;;;;;;;1.15;0.80;;;;;;;20.06;51.65;101221.66;5051082;28;20370;-45
2023/10/05 07:58:05;;;;;;;1.00;0.82;;;;;;;20.11;51.53;101221.69;5053808;28;20079;-45
2023/10/05 08:00:33;;;;;;;3.42;1.33;;;;;;;20.26;52.28;101230.75;5056229;28;20029;-45
2023/10/05 08:02:59;;;;;;;1.98;1.00;;;;;;;19.98;53.50;101225.66;5054305;28;20053;-46
2023/10/05 08:05:26;;;;;;;2.28;0.98;;;;;;;19.87;54.42;101216.59;5035744;28;20071;-46
2023/10/05 08:07:54;;;;;;;1.38;0.93;;;;;;;19.66;55.14;101222.94;5055347;28;20032;-46
2023/10/05 08:10:21;;;;;;;1.45;1.15;;;;;;;19.60;55.90;101223.94;5055337;28;20119;-46
2023/10/05 08:12:50;;;;;;;2.10;1.30;;;;;;;19.72;55.88;101222.72;5055320;28;20055;-46
2023/10/05 08:15:20;;;;;;;1.67;1.10;;;;;;;19.59;55.99;101225.84;5054952;28;20025;-46
2023/10/05 08:17:50;;;;;;;1.98;1.00;;;;;;;19.57;56.72;101229.88;5055266;28;20021;-46
2023/10/05 08:20:20;;;;;;;2.10;1.40;;;;;;;19.78;56.32;101232.56;5055181;28;20429;-46
2023/10/05 08:22:46;;;;;;;2.03;1.25;;;;;;;19.63;56.53;101224.25;5054896;28;20405;-46
2023/10/05 08:25:13;;;;;;;1.33;1.08;;;;;;;19.47;57.23;101231.38;5054785;28;20032;-46
2023/10/05 08:27:42;;;;;;;2.70;1.45;;;;;;;19.57;56.93;101229.88;5054983;28;20032;-46
2023/10/05 08:30:12;;;;;;;2.20;1.60;;;;;;;19.59;56.98;101238.59;5054946;28;20063;-45
2023/10/05 08:32:40;;;;;;;3.10;1.40;;;;;;;19.58;56.73;101245.06;5054995;28;20025;-46
2023/10/05 08:35:13;;;;;;;2.58;1.30;;;;;;;19.61;56.32;101244.59;5054611;28;20398;-46
2023/10/05 08:37:47;;;;;;;1.70;1.25;;;;;;;19.30;57.58;101240.72;5054254;28;20397;-46
2023/10/05 08:43:10;;;;;;;3.05;1.27;;;;;;;19.13;58.26;101247.03;5055233;28;19919;-46
2023/10/05 08:45:47;;;;;;;2.35;1.08;;;;;;;19.16;58.80;101253.84;5054648;28;20035;-46
2023/10/05 08:48:19;;;;;;;2.00;1.23;;;;;;;18.98;59.13;101254.97;5054866;28;20029;-46
2023/10/05 08:50:57;;;;;;;2.67;1.38;;;;;;;18.67;60.22;101254.56;5054641;28;20501;-46
2023/10/05 08:53:23;;;;;;;3.03;1.20;;;;;;;18.38;61.44;101263.88;5054367;28;20033;-47
2023/10/05 08:55:54;;;;;;;1.83;1.20;;;;;;;18.42;61.50;101260.41;5054375;28;20017;-46
2023/10/05 08:58:22;;;;;;;1.75;0.93;;;;;;;18.47;61.54;101270.50;5054600;28;20032;-46
2023/10/05 09:00:48;;;;;;;1.55;1.08;;;;;;;18.55;61.06;101270.09;5054496;28;20029;-46
2023/10/05 09:03:30;;;;;;;3.17;1.30;;;;;;;18.47;61.44;101267.78;5053975;28;20358;-46
2023/10/05 09:06:13;;;;;;;2.03;1.00;;;;;;;18.76;60.83;101271.22;5054447;28;20506;-46
2023/10/05 09:08:54;;;;;;;1.83;1.05;;;;;;;18.72;60.75;101270.91;5053637;28;20025;-46
2023/10/05 09:11:31;;;;;;;2.22;1.00;;;;;;;18.82;60.49;101269.41;5054140;28;20024;-46
2023/10/05 09:14:27;;;;;;;1.38;1.00;;;;;;;18.92;59.86;101274.97;5054206;28;20056;-45
2023/10/05 09:17:10;;;;;;;1.98;1.15;;;;;;;18.96;59.87;101273.41;5053898;28;20040;-46
2023/10/05 09:19:37;;;;;;;4.10;1.10;;;;;;;18.72;60.34;101279.06;5053892;28;20036;-45
2023/10/05 09:22:13;;;;;;;2.35;1.05;;;;;;;18.38;61.48;101282.84;5053648;28;20115;-46
2023/10/05 09:24:43;;;;;;;1.63;1.00;;;;;;;18.20;62.07;101284.69;5054048;28;20036;-46
2023/10/05 09:27:12;;;;;;;1.90;1.00;;;;;;;18.27;62.18;101291.88;5053681;28;20025;-45
2023/10/05 09:29:40;;;;;;;2.08;0.98;;;;;;;18.01;63.02;101283.31;5053600;28;20036;-45
2023/10/05 09:32:11;;;;;;;2.30;1.08;;;;;;;17.94;63.49;101282.66;5053953;28;20116;-46
2023/10/05 09:34:44;;;;;;;3.05;1.33;;;;;;;17.97;63.70;101287.56;5053284;28;20029;-46
2023/10/05 09:37:13;;;;;;;2.53;1.10;;;;;;;17.93;63.62;101286.41;5053520;28;20060;-46
2023/10/05 09:39:44;;;;;;;1.13;0.95;;;;;;;17.93;63.46;101291.81;5053252;28;20128;-45
2023/10/05 09:42:17;;;;;;;1.40;1.00;;;;;;;17.94;63.47;101285.34;5053895;28;20059;-45
2023/10/05 09:44:51;;;;;;;1.98;0.95;;;;;;;18.00;63.35;101295.22;5053674;28;20041;-46
2023/10/05 09:47:35;;;;;;;2.85;1.10;;;;;;;18.19;63.00;101290.38;5053367;28;20102;-46
2023/10/05 09:50:21;;;;;;;1.35;1.00;;;;;;;18.06;63.06;101301.53;5053312;28;20033;-45
2023/10/05 09:52:48;;;;;;;3.33;0.88;;;;;;;18.04;63.19;101299.06;5053897;28;20071;-45
2023/10/05 09:55:19;;;;;;;1.48;1.00;;;;;;;17.96;63.43;101304.88;5052922;28;20029;-46
2023/10/05 09:57:46;;;;;;;2.05;0.80;;;;;;;17.99;63.12;101307.13;5053340;28;20025;-46
2023/10/05 10:02:58;;;;;;;2.67;1.10;;;;;;;17.92;63.59;101288.28;5053321;28;20504;-46
2023/10/05 10:05:33;;;;;;;1.50;1.08;;;;;;;18.20;63.30;101290.13;5049857;28;20041;-46
2023/10/05 10:08:10;;;;;;;1.65;0.90;;;;;;;18.05;63.16;101289.06;5053102;28;20056;-46
2023/10/05 10:10:44;;;;;;;1.80;0.85;;;;;;;18.07;63.25;101295.88;5052004;28;20043;-46
2023/10/05 10:13:13;;;;;;;1.63;1.10;;;;;;;17.91;63.73;101292.06;5033234;28;20030;-46
2023/10/05 10:15:39;;;;;;;1.33;1.23;;;;;;;17.90;63.69;101292.31;5032699;28;20152;-45
2023/10/05 10:18:14;;;;;;;1.60;1.10;;;;;;;18.14;63.65;101293.00;5033135;28;20505;-46
2023/10/05 10:20:51;;;;;;;1.50;1.10;;;;;;;18.03;63.42;101302.84;5032824;28;20109;-46
2023/10/05 10:23:22;;;;;;;1.83;1.15;;;;;;;18.02;63.50;101298.50;5038001;28;20039;-46
2023/10/05 10:25:51;;;;;;;1.45;1.00;;;;;;;17.87;63.84;101293.63;5052774;28;20036;-46
2023/10/05 10:31:18;;;;;;;1.95;1.00;;;;;;;18.05;63.33;101299.91;5050288;28;20116;-45
2023/10/05 10:33:51;;;;;;;1.63;1.25;;;;;;;17.89;63.76;101294.22;5042661;28;20112;-45
2023/10/05 10:36:46;;;;;;;1.48;1.17;;;;;;;17.75;64.15;101300.16;5032253;28;20074;-45
2023/10/05 10:39:23;;;;;;;1.30;0.80;;;;;;;17.67;64.22;101291.34;5032509;28;20069;-45
2023/10/05 10:42:18;;;;;;;2.30;1.00;;;;;;;17.74;64.63;101296.63;5032617;28;20446;-45
2023/10/05 10:47:22;;;;;;;1.15;0.95;;;;;;;17.64;64.79;101299.13;5032575;28;20284;-46
2023/10/05 10:50:15;;;;;;;1.48;0.80;;;;;;;17.58;65.03;101303.59;5032389;28;20029;-46
2023/10/05 10:52:44;;;;;;;1.60;1.08;;;;;;;17.50;65.24;101309.41;5032527;28;20036;-46
2023/10/05 10:55:17;;;;;;;2.20;1.10;;;;;;;17.57;65.41;101304.69;5032442;28;20029;-45
2023/10/05 10:58:00;;;;;;;1.73;1.00;;;;;;;17.60;65.24;101304.19;5032779;28;20386;-46
2023/10/05 11:03:12;;;;;;;2.55;1.40;;;;;;;17.52;66.19;101304.56;5032188;28;20382;-46
2023/10/05 11:05:40;;;;;;;3.90;1.20;;;;;;;17.57;66.36;101306.56;5031728;28;20033;-45
2023/10/05 11:08:13;;;;;;;1.92;1.20;;;;;;;17.61;66.06;101305.84;5031904;28;20048;-46
2023/10/05 11:10:40;;;;;;;1.92;1.52;;;;;;;17.49;66.79;101299.66;5031941;28;20056;-46
2023/10/05 11:13:19;;;;;;;3.25;1.23;;;;;;;17.35;67.43;101304.50;5032185;28;20025;-46
2023/10/05 11:16:03;;;;;;;2.63;1.40;;;;;;;17.50;66.64;101312.13;5038224;28;20059;-46
2023/10/05 11:18:31;;;;;;;1.80;1.20;;;;;;;17.40;67.12;101309.22;5059802;28;20032;-47
2023/10/05 11:21:18;;;;;;;2.00;1.33;;;;;;;17.55;66.43;101306.81;5051660;28;20029;-46
2023/10/05 11:23:47;;;;;;;2.25;1.27;;;;;;;17.51;66.57;101300.22;5038467;28;20033;-46
2023/10/05 11:26:18;;;;;;;1.75;1.30;;;;;;;17.42;66.81;101307.06;5043557;28;20032;-46
2023/10/05 11:28:51;;;;;;;4.05;1.50;;;;;;;17.47;66.94;101306.34;5071921;28;20532;-46
2023/10/05 11:31:21;;;;;;;1.95;1.23;;;;;;;17.49;66.46;101307.78;5055635;28;20045;-46
2023/10/05 11:33:53;;;;;;;3.45;1.70;;;;;;;17.46;66.67;101313.66;5031662;28;20029;-46
2023/10/05 11:36:27;;;;;;;2.33;1.38;;;;;;;17.42;66.54;101315.19;5031415;28;20025;-46
2023/10/05 11:38:57;;;;;;;2.17;1.42;;;;;;;17.44;66.37;101309.56;5074193;23;20063;-46
2023/10/05 11:41:33;;;;;;;4.38;2.15;;;;;;;17.56;66.26;101313.88;5071812;28;20059;-46
2023/10/05 11:44:00;;;;;;;2.85;1.70;;;;;;;17.45;66.37;101317.44;5071891;28;20418;-46
2023/10/05 11:46:48;;;;;;;1.70;1.20;;;;;;;17.36;66.13;101324.28;5071644;28;20070;-46
2023/10/05 11:49:14;;;;;;;2.38;1.20;;;;;;;17.30;66.53;101319.81;5071671;28;20028;-47
2023/10/05 11:51:42;;;;;;;1.15;0.90;;;;;;;17.24;66.65;101318.06;5071713;28;20358;-47
2023/10/05 11:54:15;;;;;;;2.65;1.00;;;;;;;17.13;67.14;101320.56;5070590;28;20024;-39
2023/10/05 11:56:41;;;;;;;2.22;1.42;;;;;;;17.25;66.44;101319.72;5060988;28;20029;-39
2023/10/05 11:59:11;;;;;;;1.30;1.20;;;;;;;17.11;66.86;101321.88;5050320;28;20351;-41
2023/10/05 12:01:44;;;;;;;1.40;1.20;;;;;;;17.05;67.09;101322.81;5048442;28;20119;-39
2023/10/05 12:04:10;;;;;;;1.92;1.08;;;;;;;17.05;66.99;101323.63;5051039;28;20025;-40
2023/10/05 12:06:40;;;;;;;2.53;1.13;;;;;;;17.04;67.22;101318.44;5056034;28;20102;-42
2023/10/05 12:09:27;;;;;;;1.40;1.05;;;;;;;17.18;67.02;101325.25;5063115;28;20021;-41
2023/10/05 12:11:54;;;;;;;1.88;1.17;;;;;;;16.90;67.78;101326.00;5067845;28;20499;-42
2023/10/05 12:14:21;;;;;;;2.20;1.42;;;;;;;17.12;67.01;101334.31;5082343;28;20131;-41
2023/10/05 12:16:47;;;;;;;3.03;1.20;;;;;;;17.11;67.17;101321.88;5071151;28;20028;-40
2023/10/05 12:19:13;;;;;;;3.08;1.58;;;;;;;17.19;66.79;101326.06;5071639;28;20032;-40
2023/10/05 12:21:46;;;;;;;2.42;1.27;;;;;;;17.17;66.71;101323.63;5071456;28;20433;-40